createdAt,value
2017-10-23T00:01:27.218Z,4.20
2017-10-23T00:03:55.475Z,3.80
2017-10-23T00:06:23.084Z,3.90
2017-10-23T00:08:50.559Z,3.70
2017-10-23T00:11:18.055Z,3.63
2017-10-23T00:13:46.201Z,4.77
2017-10-23T00:16:13.656Z,4.30
2017-10-23T00:18:41.128Z,3.87
2017-10-23T00:21:08.725Z,4.57
2017-10-23T00:23:36.963Z,3.53
2017-10-23T00:26:05.036Z,3.90
2017-10-23T00:28:32.503Z,4.20
2017-10-23T00:31:00.014Z,3.63
2017-10-23T00:33:27.515Z,4.07
2017-10-23T00:35:55.082Z,4.20
2017-10-23T00:38:23.239Z,3.63
2017-10-23T00:40:50.699Z,3.60
2017-10-23T00:43:18.167Z,3.43
2017-10-23T00:45:46.366Z,3.03
2017-10-23T00:48:13.864Z,2.80
2017-10-23T00:50:41.336Z,3.63
2017-10-23T00:53:09.575Z,3.10
2017-10-23T00:55:37.088Z,3.87
2017-10-23T00:58:05.412Z,3.40
2017-10-23T01:00:32.884Z,3.90
2017-10-23T01:03:00.355Z,6.00
2017-10-23T01:05:27.944Z,3.93
2017-10-23T01:07:55.407Z,3.33
2017-10-23T01:10:24.585Z,3.07
2017-10-23T01:12:53.330Z,3.50
2017-10-23T01:15:20.804Z,2.73
2017-10-23T01:17:49.103Z,3.13
2017-10-23T01:20:18.083Z,4.07
2017-10-23T01:22:45.655Z,3.50
2017-10-23T01:25:13.600Z,3.47
2017-10-23T01:27:41.088Z,3.87
2017-10-23T01:30:08.596Z,4.03
2017-10-23T01:32:36.061Z,3.60
2017-10-23T01:35:03.563Z,3.50
2017-10-23T01:37:31.064Z,2.73
2017-10-23T01:39:58.562Z,3.93
2017-10-23T01:42:26.044Z,3.40
2017-10-23T01:44:54.291Z,3.10
2017-10-23T01:47:21.756Z,2.83
2017-10-23T01:49:49.240Z,4.60
2017-10-23T01:52:17.468Z,2.90
2017-10-23T01:54:45.847Z,2.80
2017-10-23T01:57:13.433Z,2.77
2017-10-23T01:59:40.992Z,3.27
2017-10-23T02:02:10.563Z,2.87
2017-10-23T02:04:38.031Z,2.80
2017-10-23T02:07:05.506Z,2.57
2017-10-23T02:09:32.972Z,3.13
2017-10-23T02:12:00.441Z,2.50
2017-10-23T02:14:29.190Z,2.30
2017-10-23T02:16:56.668Z,2.50
2017-10-23T02:19:25.055Z,2.80
2017-10-23T02:21:53.416Z,2.80
2017-10-23T02:24:21.147Z,3.30
2017-10-23T02:26:48.624Z,2.60
2017-10-23T02:29:16.195Z,3.30
2017-10-23T02:31:43.663Z,2.70
2017-10-23T02:34:11.142Z,3.40
2017-10-23T02:36:39.371Z,2.77
2017-10-23T02:39:07.206Z,2.60
2017-10-23T02:41:34.693Z,3.20
2017-10-23T02:44:02.271Z,3.17
2017-10-23T02:46:29.734Z,2.97
2017-10-23T02:48:57.208Z,4.13
2017-10-23T02:51:25.439Z,2.57
2017-10-23T02:53:52.915Z,2.73
2017-10-23T02:56:20.387Z,2.87
2017-10-23T02:58:49.241Z,2.40
2017-10-23T03:01:16.723Z,2.70
2017-10-23T03:03:44.191Z,2.70
2017-10-23T03:06:11.730Z,2.33
2017-10-23T03:08:39.349Z,3.50
2017-10-23T03:11:07.318Z,2.60
2017-10-23T03:13:34.784Z,3.10
2017-10-23T03:16:02.284Z,2.93
2017-10-23T03:18:29.750Z,2.50
2017-10-23T03:20:57.983Z,3.57
2017-10-23T03:23:26.079Z,2.93
2017-10-23T03:25:53.562Z,2.20
2017-10-23T03:28:21.839Z,1.77
2017-10-23T03:30:50.861Z,2.57
2017-10-23T03:33:18.323Z,2.70
2017-10-23T03:35:46.180Z,2.80
2017-10-23T03:38:13.651Z,3.37
2017-10-23T03:40:41.130Z,2.33
2017-10-23T03:43:08.615Z,2.60
2017-10-23T03:45:36.926Z,3.73
2017-10-23T03:48:04.434Z,2.10
2017-10-23T03:50:31.999Z,2.57
2017-10-23T03:52:59.560Z,2.37
2017-10-23T03:55:27.103Z,3.00
2017-10-23T03:57:54.596Z,3.13
2017-10-23T04:00:22.824Z,2.67
2017-10-23T04:02:50.283Z,3.00
2017-10-23T04:05:17.757Z,2.70
2017-10-23T04:07:45.224Z,2.67
2017-10-23T04:10:13.479Z,3.07
2017-10-23T04:12:40.958Z,3.10
2017-10-23T04:15:09.185Z,3.00
2017-10-23T04:17:36.671Z,2.37
2017-10-23T04:20:04.152Z,2.30
2017-10-23T04:22:31.663Z,2.27
2017-10-23T04:24:59.130Z,2.43
2017-10-23T04:27:26.703Z,2.60
2017-10-23T04:29:54.163Z,2.30
2017-10-23T04:32:21.632Z,3.30
2017-10-23T04:34:49.885Z,1.77
2017-10-23T04:37:17.372Z,3.23
2017-10-23T04:39:45.603Z,2.67
2017-10-23T04:42:13.085Z,2.27
2017-10-23T04:44:41.316Z,2.00
2017-10-23T04:47:08.776Z,1.83
2017-10-23T04:49:36.250Z,1.67
2017-10-23T04:52:03.729Z,2.37
2017-10-23T04:54:31.188Z,2.33
2017-10-23T04:56:58.744Z,2.50
2017-10-23T04:59:26.202Z,2.40
2017-10-23T05:01:53.664Z,2.20
2017-10-23T05:04:21.135Z,3.73
2017-10-23T05:06:48.607Z,2.37
2017-10-23T05:09:16.088Z,2.63
2017-10-23T05:11:43.578Z,2.00
2017-10-23T05:14:11.052Z,2.00
2017-10-23T05:16:38.676Z,2.20
2017-10-23T05:19:06.999Z,1.80
2017-10-23T05:21:35.227Z,2.30
2017-10-23T05:24:02.710Z,2.20
2017-10-23T05:26:30.179Z,1.70
2017-10-23T05:28:58.415Z,2.47
2017-10-23T05:31:27.036Z,2.13
2017-10-23T05:33:55.282Z,2.17
2017-10-23T05:36:22.744Z,3.03
2017-10-23T05:38:50.215Z,2.43
2017-10-23T05:41:17.781Z,2.20
2017-10-23T05:43:46.719Z,2.30
2017-10-23T05:46:14.180Z,2.70
2017-10-23T05:48:41.671Z,1.90
2017-10-23T05:51:09.136Z,2.20
2017-10-23T05:53:37.372Z,3.13
2017-10-23T05:56:04.853Z,2.47
2017-10-23T05:58:32.419Z,2.50
2017-10-23T06:00:59.883Z,2.40
2017-10-23T06:03:27.444Z,2.00
2017-10-23T06:05:54.907Z,2.30
2017-10-23T06:08:23.155Z,2.53
2017-10-23T06:10:50.638Z,2.27
2017-10-23T06:13:18.098Z,3.23
2017-10-23T06:15:46.328Z,2.67
2017-10-23T06:18:13.816Z,2.73
2017-10-23T06:20:41.267Z,2.40
2017-10-23T06:23:08.732Z,2.47
2017-10-23T06:25:36.219Z,2.70
2017-10-23T06:28:04.484Z,2.13
2017-10-23T06:30:32.702Z,2.30
2017-10-23T06:33:00.172Z,3.07
2017-10-23T06:35:27.637Z,2.23
2017-10-23T06:37:55.229Z,2.50
2017-10-23T06:40:23.530Z,2.33
2017-10-23T06:42:50.983Z,2.53
2017-10-23T06:45:18.435Z,2.40
2017-10-23T06:47:46.032Z,2.50
2017-10-23T06:50:13.521Z,2.00
2017-10-23T06:52:40.995Z,2.37
2017-10-23T06:55:08.476Z,2.43
2017-10-23T06:57:35.942Z,2.10
2017-10-23T07:00:03.399Z,2.20
2017-10-23T07:02:30.912Z,2.33
2017-10-23T07:04:59.151Z,1.93
2017-10-23T07:07:26.626Z,2.23
2017-10-23T07:09:54.924Z,2.80
2017-10-23T07:12:23.191Z,2.13
2017-10-23T07:14:50.735Z,2.30
2017-10-23T07:17:18.231Z,2.70
2017-10-23T07:19:45.734Z,1.53
2017-10-23T07:22:13.191Z,2.50
2017-10-23T07:24:40.783Z,2.23
2017-10-23T07:27:08.326Z,1.47
2017-10-23T07:29:35.795Z,2.27
2017-10-23T07:32:03.343Z,2.37
2017-10-23T07:34:30.808Z,1.77
2017-10-23T07:36:59.499Z,2.27
2017-10-23T07:39:27.743Z,1.97
2017-10-23T07:41:55.207Z,1.87
2017-10-23T07:44:22.667Z,2.77
2017-10-23T07:46:50.133Z,2.40
2017-10-23T07:49:17.600Z,2.07
2017-10-23T07:51:45.063Z,2.70
2017-10-23T07:54:13.319Z,2.20
2017-10-23T07:56:40.873Z,1.83
2017-10-23T07:59:08.437Z,1.83
2017-10-23T08:01:35.920Z,1.97
2017-10-23T08:04:04.189Z,1.87
2017-10-23T08:06:32.406Z,2.13
2017-10-23T08:08:59.883Z,1.90
2017-10-23T08:11:27.365Z,2.17
2017-10-23T08:13:54.931Z,2.00
2017-10-23T08:16:23.191Z,1.73
2017-10-23T08:18:51.464Z,2.23
2017-10-23T08:21:18.935Z,2.30
2017-10-23T08:23:46.398Z,2.03
2017-10-23T08:26:14.641Z,2.00
2017-10-23T08:28:42.098Z,1.70
2017-10-23T08:31:10.081Z,2.07
2017-10-23T08:33:37.539Z,1.30
2017-10-23T08:36:04.999Z,1.80
2017-10-23T08:38:32.728Z,2.43
2017-10-23T08:41:00.208Z,2.70
2017-10-23T08:43:27.673Z,2.57
2017-10-23T08:45:55.136Z,2.50
2017-10-23T08:48:22.601Z,2.50
2017-10-23T08:50:50.834Z,2.40
2017-10-23T08:53:18.319Z,3.53
2017-10-23T08:55:45.789Z,1.73
2017-10-23T08:58:14.035Z,1.70
2017-10-23T09:00:41.515Z,2.00
2017-10-23T09:03:08.996Z,2.30
2017-10-23T09:05:37.229Z,2.00
2017-10-23T09:08:04.699Z,2.60
2017-10-23T09:10:32.163Z,2.70
2017-10-23T09:13:00.409Z,1.90
2017-10-23T09:15:27.863Z,3.50
2017-10-23T09:17:55.340Z,3.33
2017-10-23T09:20:22.829Z,2.00
2017-10-23T09:22:51.043Z,2.50
2017-10-23T09:25:18.503Z,2.63
2017-10-23T09:27:45.976Z,3.70
2017-10-23T09:30:13.431Z,2.20
2017-10-23T09:32:40.901Z,2.90
2017-10-23T09:35:08.359Z,1.87
2017-10-23T09:37:35.820Z,1.97
2017-10-23T09:40:03.296Z,1.80
2017-10-23T09:42:31.541Z,2.17
2017-10-23T09:44:59.004Z,1.90
2017-10-23T09:47:26.459Z,2.93
2017-10-23T09:49:53.932Z,2.00
2017-10-23T09:52:22.155Z,2.03
2017-10-23T09:54:49.627Z,1.93
2017-10-23T09:57:17.107Z,2.00
2017-10-23T09:59:44.599Z,2.10
2017-10-23T10:02:12.299Z,3.10
2017-10-23T10:04:40.014Z,2.40
2017-10-23T10:07:07.502Z,3.30
2017-10-23T10:09:35.196Z,2.80
2017-10-23T10:12:02.664Z,2.60
2017-10-23T10:14:30.111Z,2.00
2017-10-23T10:16:57.568Z,2.00
2017-10-23T10:19:25.056Z,2.07
2017-10-23T10:21:53.287Z,1.90
2017-10-23T10:24:20.747Z,2.13
2017-10-23T10:26:48.223Z,1.93
2017-10-23T10:29:15.679Z,2.47
2017-10-23T10:31:43.140Z,2.17
2017-10-23T10:34:10.634Z,3.07
2017-10-23T10:36:38.109Z,2.23
2017-10-23T10:39:05.572Z,2.20
2017-10-23T10:41:33.058Z,2.20
2017-10-23T10:44:00.588Z,2.37
2017-10-23T10:46:28.046Z,2.03
2017-10-23T10:48:55.533Z,1.77
2017-10-23T10:51:22.978Z,1.90
2017-10-23T10:53:50.438Z,2.47
2017-10-23T10:56:17.903Z,1.90
2017-10-23T10:58:45.374Z,2.40
2017-10-23T11:01:13.610Z,1.83
2017-10-23T11:03:41.087Z,1.57
2017-10-23T11:06:08.544Z,1.40
2017-10-23T11:08:36.015Z,2.20
2017-10-23T11:11:04.251Z,1.43
2017-10-23T11:13:31.712Z,1.70
2017-10-23T11:15:59.184Z,1.77
2017-10-23T11:18:26.667Z,2.07
2017-10-23T11:20:54.921Z,1.80
2017-10-23T11:23:22.383Z,1.60
2017-10-23T11:25:49.868Z,1.93
2017-10-23T11:28:17.326Z,2.40
2017-10-23T11:30:45.159Z,2.03
2017-10-23T11:33:12.687Z,2.53
2017-10-23T11:35:40.171Z,2.10
2017-10-23T11:38:07.708Z,2.17
2017-10-23T11:40:35.212Z,2.07
2017-10-23T11:43:03.461Z,3.13
2017-10-23T11:45:30.932Z,2.50
2017-10-23T11:47:59.176Z,2.23
2017-10-23T11:50:26.678Z,2.80
2017-10-23T11:52:54.906Z,2.57
2017-10-23T11:55:23.155Z,1.83
2017-10-23T11:57:50.635Z,2.57
2017-10-23T12:00:18.142Z,2.13
2017-10-23T12:02:45.625Z,1.90
2017-10-23T12:05:13.088Z,1.87
2017-10-23T12:07:40.555Z,1.83
2017-10-23T12:10:08.024Z,2.30
2017-10-23T12:12:35.487Z,1.97
2017-10-23T12:15:02.999Z,2.00
2017-10-23T12:17:30.469Z,2.37
2017-10-23T12:19:57.961Z,2.33
2017-10-23T12:22:25.433Z,2.83
2017-10-23T12:24:52.903Z,2.83
2017-10-23T12:27:21.144Z,1.97
2017-10-23T12:29:48.627Z,1.77
2017-10-23T12:32:16.100Z,2.37
2017-10-23T12:34:44.354Z,2.60
2017-10-23T12:37:11.899Z,1.97
2017-10-23T12:39:39.367Z,2.37
2017-10-23T12:42:06.830Z,2.80
2017-10-23T12:44:34.382Z,2.53
2017-10-23T12:47:01.832Z,2.13
2017-10-23T12:49:29.295Z,2.60
2017-10-23T12:51:56.848Z,2.33
2017-10-23T12:54:24.307Z,2.30
2017-10-23T12:56:51.769Z,2.13
2017-10-23T12:59:19.324Z,2.57
2017-10-23T13:01:48.327Z,3.00
2017-10-23T13:04:16.560Z,2.70
2017-10-23T13:06:44.627Z,2.83
2017-10-23T13:09:12.091Z,2.47
2017-10-23T13:11:39.617Z,2.70
2017-10-23T13:14:07.142Z,2.77
2017-10-23T13:16:34.643Z,2.67
2017-10-23T13:19:02.153Z,2.77
2017-10-23T13:21:29.707Z,3.00
2017-10-23T13:23:57.174Z,2.93
2017-10-23T13:26:25.743Z,2.73
2017-10-23T13:28:53.200Z,3.23
2017-10-23T13:31:20.713Z,2.70
2017-10-23T13:33:48.178Z,2.73
2017-10-23T13:36:15.658Z,2.70
2017-10-23T13:38:43.114Z,2.40
2017-10-23T13:41:10.719Z,3.40
2017-10-23T13:43:38.204Z,2.57
2017-10-23T13:46:06.624Z,1.90
2017-10-23T13:48:34.102Z,2.00
2017-10-23T13:51:02.334Z,2.33
2017-10-23T13:53:29.797Z,2.73
2017-10-23T13:55:57.275Z,2.30
2017-10-23T13:58:24.753Z,2.10
2017-10-23T14:00:52.975Z,1.80
2017-10-23T14:03:20.468Z,2.60
2017-10-23T14:05:47.940Z,4.07
2017-10-23T14:08:15.440Z,2.37
2017-10-23T14:10:42.936Z,2.40
2017-10-23T14:13:10.412Z,2.20
2017-10-23T14:15:38.654Z,2.93
2017-10-23T14:18:06.113Z,2.30
2017-10-23T14:20:33.601Z,3.03
2017-10-23T14:23:01.081Z,2.20
2017-10-23T14:25:28.536Z,2.90
2017-10-23T14:27:57.653Z,3.40
2017-10-23T14:30:25.115Z,2.47
2017-10-23T14:32:52.599Z,2.90
2017-10-23T14:35:20.122Z,2.20
2017-10-23T14:37:47.586Z,3.13
2017-10-23T14:40:15.043Z,2.40
2017-10-23T14:42:43.376Z,2.27
2017-10-23T14:45:11.619Z,2.50
2017-10-23T14:47:39.091Z,2.23
2017-10-23T14:50:07.357Z,3.83
2017-10-23T14:52:34.844Z,2.70
2017-10-23T14:55:03.071Z,2.60
2017-10-23T14:57:30.559Z,3.20
2017-10-23T14:59:58.817Z,3.47
2017-10-23T15:02:26.292Z,2.40
2017-10-23T15:04:54.536Z,2.47
2017-10-23T15:07:21.999Z,3.87
2017-10-23T15:09:49.468Z,2.83
2017-10-23T15:12:18.519Z,2.60
2017-10-23T15:14:46.823Z,2.70
2017-10-23T15:17:14.320Z,2.20
2017-10-23T15:19:42.568Z,2.20
2017-10-23T15:22:10.042Z,2.10
2017-10-23T15:24:38.269Z,2.27
2017-10-23T15:27:05.760Z,2.20
2017-10-23T15:29:33.220Z,2.93
2017-10-23T15:32:00.681Z,2.80
2017-10-23T15:34:28.942Z,2.47
2017-10-23T15:36:56.395Z,2.00
2017-10-23T15:39:23.980Z,2.57
2017-10-23T15:41:52.250Z,1.90
2017-10-23T15:44:20.484Z,2.80
2017-10-23T15:46:47.943Z,2.57
2017-10-23T15:49:15.432Z,3.73
2017-10-23T15:51:43.680Z,3.00
2017-10-23T15:54:11.153Z,2.80
2017-10-23T15:56:38.637Z,2.53
2017-10-23T15:59:07.868Z,2.63
2017-10-23T16:01:35.335Z,2.83
2017-10-23T16:04:02.819Z,2.37
2017-10-23T16:06:30.296Z,2.67
2017-10-23T16:08:58.537Z,2.43
2017-10-23T16:11:26.046Z,3.03
2017-10-23T16:13:53.522Z,2.77
2017-10-23T16:16:20.979Z,3.03
2017-10-23T16:18:48.490Z,2.40
2017-10-23T16:21:16.107Z,2.20
2017-10-23T16:23:43.588Z,3.60
2017-10-23T16:26:11.051Z,3.10
2017-10-23T16:28:38.565Z,3.10
2017-10-23T16:31:06.736Z,3.20
2017-10-23T16:33:34.201Z,3.00
2017-10-23T16:36:01.690Z,2.90
2017-10-23T16:38:29.158Z,5.30
2017-10-23T16:40:56.729Z,3.37
2017-10-23T16:43:24.332Z,2.80
2017-10-23T16:45:51.798Z,4.90
2017-10-23T16:48:19.271Z,4.47
2017-10-23T16:50:46.808Z,2.50
2017-10-23T16:53:14.276Z,4.50
2017-10-23T16:55:41.754Z,11.63
2017-10-23T16:58:09.228Z,34.43
2017-10-23T17:00:36.836Z,13.35
2017-10-23T17:03:05.139Z,7.07
2017-10-23T17:05:32.620Z,27.40
2017-10-23T17:08:00.088Z,4.93
2017-10-23T17:10:28.342Z,7.87
2017-10-23T17:12:55.860Z,11.77
2017-10-23T17:15:23.364Z,3.50
2017-10-23T17:17:50.915Z,3.10
2017-10-23T17:20:18.384Z,3.00
2017-10-23T17:22:46.664Z,2.60
2017-10-23T17:25:14.903Z,2.67
2017-10-23T17:27:42.492Z,2.97
2017-10-23T17:30:09.976Z,2.90
2017-10-23T17:32:37.507Z,3.10
2017-10-23T17:35:05.218Z,4.65
2017-10-23T17:37:32.736Z,3.40
2017-10-23T17:40:00.972Z,3.63
2017-10-23T17:42:28.534Z,3.90
2017-10-23T17:44:56.017Z,3.53
2017-10-23T17:47:23.487Z,4.63
2017-10-23T17:49:51.704Z,4.27
2017-10-23T17:52:19.207Z,4.43
2017-10-23T17:54:46.715Z,5.00
2017-10-23T17:57:14.176Z,4.10
2017-10-23T17:59:41.699Z,4.43
2017-10-23T18:02:09.934Z,4.00
2017-10-23T18:04:37.387Z,5.20
2017-10-23T18:07:05.599Z,5.60
2017-10-23T18:09:33.836Z,7.10
2017-10-23T18:12:01.857Z,8.33
2017-10-23T18:14:30.083Z,8.83
2017-10-23T18:16:57.557Z,11.30
2017-10-23T18:19:25.332Z,13.73
2017-10-23T18:21:53.587Z,15.40
2017-10-23T18:24:21.068Z,15.37
2017-10-23T18:26:48.552Z,17.70
2017-10-23T19:24:08.576Z,32.20
2017-10-23T19:26:36.267Z,33.10
2017-10-23T19:29:03.740Z,34.07
2017-10-23T19:31:31.228Z,33.27
2017-10-23T19:33:58.697Z,33.77
2017-10-23T19:36:27.314Z,29.70
2017-10-23T19:38:54.816Z,24.77
2017-10-23T19:41:22.276Z,26.07
2017-10-23T19:43:49.739Z,28.70
2017-10-23T19:46:17.252Z,24.73
2017-10-23T19:48:44.723Z,28.10
2017-10-23T19:51:12.187Z,26.77
2017-10-23T19:53:39.664Z,28.00
2017-10-23T19:56:07.143Z,29.27
2017-10-23T19:58:35.036Z,29.97
2017-10-23T20:01:02.512Z,28.90
2017-10-23T20:03:29.981Z,31.70
2017-10-23T20:05:57.451Z,28.37
2017-10-23T20:08:24.948Z,27.90
2017-10-23T20:10:52.443Z,28.60
2017-10-23T20:13:19.988Z,31.80
2017-10-23T20:15:47.695Z,31.83
2017-10-23T20:18:15.168Z,33.23
2017-10-23T20:20:43.404Z,31.30
2017-10-23T20:23:10.897Z,35.40
2017-10-23T20:25:39.140Z,30.83
2017-10-23T20:28:06.646Z,30.20
2017-10-23T20:30:34.120Z,32.00
2017-10-23T20:33:01.576Z,30.90
2017-10-23T20:35:29.052Z,33.47
2017-10-23T20:37:56.544Z,32.03
2017-10-23T20:40:24.028Z,33.87
2017-10-23T20:42:51.551Z,33.03
2017-10-23T20:45:19.035Z,34.60
2017-10-23T20:47:47.312Z,37.87
2017-10-23T20:50:14.799Z,37.93
2017-10-23T20:52:42.264Z,39.00
2017-10-23T20:55:09.727Z,35.37
2017-10-23T20:57:37.216Z,40.27
2017-10-23T21:00:04.725Z,37.90
2017-10-23T21:02:32.220Z,43.30
2017-10-23T21:04:59.697Z,42.77
2017-10-23T21:07:27.174Z,40.57
2017-10-23T21:09:55.407Z,41.40
2017-10-23T21:12:22.884Z,37.67
2017-10-23T21:14:50.361Z,40.90
2017-10-23T21:17:19.093Z,44.63
2017-10-23T21:19:47.146Z,42.80
2017-10-23T21:22:14.612Z,43.50
2017-10-23T21:24:42.901Z,43.03
2017-10-23T21:27:10.377Z,42.93
2017-10-23T21:29:37.860Z,42.47
2017-10-23T21:32:06.107Z,46.47
2017-10-23T21:34:33.579Z,42.00
2017-10-23T21:37:02.446Z,43.50
2017-10-23T21:39:29.923Z,40.30
2017-10-23T21:41:57.392Z,42.47
2017-10-23T21:44:26.013Z,43.63
2017-10-23T21:47:06.425Z,46.33
2017-10-23T21:49:34.546Z,44.10
2017-10-23T21:52:02.022Z,44.30
2017-10-23T21:54:29.508Z,49.27
2017-10-23T21:56:56.985Z,47.07
2017-10-23T21:59:25.499Z,46.67
2017-10-23T22:01:53.856Z,50.27
2017-10-23T22:04:21.352Z,51.03
2017-10-23T22:06:48.819Z,43.53
2017-10-23T22:09:16.291Z,47.40
2017-10-23T22:11:43.851Z,53.00
2017-10-23T22:14:11.424Z,51.17
2017-10-23T22:16:39.667Z,44.77
2017-10-23T22:19:07.252Z,54.03
2017-10-23T22:21:35.718Z,50.63
2017-10-23T22:24:03.537Z,44.83
2017-10-23T22:26:31.011Z,50.37
2017-10-23T22:28:58.495Z,48.43
2017-10-23T22:31:26.061Z,47.27
2017-10-23T22:33:53.536Z,51.67
2017-10-23T22:36:21.780Z,52.87
2017-10-23T22:38:49.271Z,57.57
2017-10-23T22:41:17.883Z,50.23
2017-10-23T22:43:45.663Z,48.67
2017-10-23T22:46:13.140Z,49.07
2017-10-23T22:48:40.617Z,55.97
2017-10-23T22:51:08.892Z,52.07
2017-10-23T22:53:36.471Z,54.40
2017-10-23T22:56:05.466Z,58.60
2017-10-23T22:58:34.075Z,48.80
2017-10-23T23:01:01.605Z,52.43
2017-10-23T23:03:29.996Z,51.97
2017-10-23T23:05:57.887Z,45.07
2017-10-23T23:08:25.350Z,52.70
2017-10-23T23:10:52.848Z,53.80
2017-10-23T23:13:20.328Z,48.67
2017-10-23T23:15:48.571Z,54.60
2017-10-23T23:18:16.057Z,49.57
2017-10-23T23:20:44.222Z,51.70
2017-10-23T23:23:11.954Z,47.93
2017-10-23T23:25:40.018Z,49.37
2017-10-23T23:28:07.482Z,51.50
2017-10-23T23:30:35.208Z,47.33
2017-10-23T23:33:02.682Z,45.40
2017-10-23T23:35:30.654Z,51.73
2017-10-23T23:37:58.124Z,43.73
2017-10-23T23:40:26.137Z,50.73
2017-10-23T23:42:53.615Z,44.80
2017-10-23T23:45:21.478Z,42.23
2017-10-23T23:47:48.938Z,46.07
2017-10-23T23:50:16.398Z,46.77
2017-10-23T23:52:43.874Z,51.50
2017-10-23T23:55:11.485Z,42.40
2017-10-23T23:57:38.934Z,48.33
